»·PEaware :: SWA9035 KMWH-KPDX

SWA9035 :: KMWH-KPDX

FLIGHT INFORMATION

Flight Status: Arrived
Operator:
Southwest Airlines
More flights by this operator :: More flights under this callsign
Pilot: Tim K. (2)
Aircraft: BOEING 737-200
(B732)
More flights by this aircraft type
Origin: KMWH Grant Co Intl
United States
Destination: KPDX Portland Intl
United States
More flights between these airports :: More routes between these airports
Route: MOSES3 YKM J136 BTG
File this flight plan on PilotEdge
Remarks:
Altitude:
(Current/Filed)
24,000ft
Speed:
(Current/Filed)
350kts
Departed: 12-Jan-18 07:31 PM
Arrived: 12-Jan-18 08:15 PM
Distance/Time
Traveled:
167nm/0:44
Distance/Time
To Go:
Arrived

Flight Plot

Page will automatically refresh every two minutes.

Flight plan parsing failed; only flown route is shown


Map Options




Map Legend


Flown Route
Filed Route
Departure Airport
Arrival Airport
Navaid (VOR, NDB)
Fix

Horizontal Profiles

Position Reports

Time Latitude Longitude Heading Altitude Ground
Speed
12-Jan-18 19:04 47.190393 -119.328373 1 1182ft 0kts
12-Jan-18 19:05 47.190393 -119.328373 1 1182ft 0kts
12-Jan-18 19:06 47.190393 -119.328373 1 1182ft 0kts
12-Jan-18 19:07 47.190393 -119.328373 1 1182ft 0kts
12-Jan-18 19:08 47.190393 -119.328373 1 1182ft 0kts
12-Jan-18 19:09 47.190393 -119.328373 1 1182ft 0kts
12-Jan-18 19:10 47.190393 -119.328373 1 1182ft 0kts
12-Jan-18 19:11 47.190393 -119.328373 1 1182ft 0kts
12-Jan-18 19:12 47.190393 -119.328373 1 1182ft 0kts
12-Jan-18 19:13 47.190393 -119.328373 1 1182ft 0kts
12-Jan-18 19:14 47.190393 -119.328373 1 1182ft 0kts
12-Jan-18 19:15 47.190393 -119.328373 1 1182ft 0kts
12-Jan-18 19:16 47.190393 -119.328373 1 1182ft 0kts
12-Jan-18 19:17 47.190393 -119.328373 1 1182ft 0kts
12-Jan-18 19:18 47.190393 -119.328373 1 1182ft 0kts
12-Jan-18 19:19 47.190393 -119.328373 1 1182ft 0kts
12-Jan-18 19:20 47.190393 -119.328373 1 1182ft 0kts
12-Jan-18 19:21 47.190393 -119.328373 1 1182ft 0kts
12-Jan-18 19:22 47.190393 -119.328373 1 1182ft 0kts
12-Jan-18 19:23 47.190393 -119.328373 1 1182ft 0kts
12-Jan-18 19:24 47.190393 -119.328373 1 1182ft 0kts
12-Jan-18 19:25 47.190393 -119.328373 1 1182ft 0kts
12-Jan-18 19:26 47.190393 -119.328373 1 1182ft 0kts
12-Jan-18 19:27 47.190393 -119.328373 1 1182ft 0kts
12-Jan-18 19:28 47.190393 -119.328373 1 1182ft 0kts
12-Jan-18 19:29 47.190393 -119.328373 1 1182ft 0kts
12-Jan-18 19:30 47.190393 -119.328373 1 1182ft 0kts
12-Jan-18 19:31 47.190393 -119.328373 1 1182ft 0kts
12-Jan-18 19:32 47.190393 -119.328373 1 1182ft 0kts
12-Jan-18 19:33 47.190393 -119.328373 1 1182ft 0kts
12-Jan-18 19:34 47.191451 -119.327510 66 1182ft 16kts
12-Jan-18 19:35 47.191656 -119.318862 89 1182ft 25kts
12-Jan-18 19:36 47.191647 -119.312078 88 1182ft 0kts
12-Jan-18 19:37 47.195135 -119.312143 341 1182ft 52kts
12-Jan-18 19:38 47.236743 -119.330752 345 3088ft 220kts
12-Jan-18 19:39 47.296532 -119.365569 325 5830ft 258kts
12-Jan-18 19:40 47.296666 -119.463009 229 8704ft 294kts
12-Jan-18 19:41 47.239554 -119.549637 228 11485ft 307kts
12-Jan-18 19:42 47.177796 -119.636143 228 13926ft 317kts
12-Jan-18 19:43 47.113296 -119.723539 227 16039ft 327kts
12-Jan-18 19:44 47.046548 -119.813264 228 17920ft 336kts
12-Jan-18 19:45 46.977010 -119.906946 228 19493ft 347kts
12-Jan-18 19:46 46.904868 -120.003339 228 20830ft 359kts
12-Jan-18 19:47 46.830445 -120.101404 228 22042ft 368kts
12-Jan-18 19:48 46.754192 -120.202279 229 23158ft 374kts
12-Jan-18 19:49 46.676506 -120.304899 229 23996ft 381kts
12-Jan-18 19:50 46.596990 -120.409618 229 24002ft 396kts
12-Jan-18 19:51 46.513505 -120.518917 230 23994ft 412kts
12-Jan-18 19:52 46.466015 -120.658538 250 24000ft 406kts
12-Jan-18 19:53 46.417895 -120.800159 248 24004ft 417kts
12-Jan-18 19:54 46.364130 -120.950089 247 23356ft 416kts
12-Jan-18 19:55 46.312812 -121.091088 247 22424ft 380kts
12-Jan-18 19:56 46.264963 -121.221602 247 21350ft 359kts
12-Jan-18 19:57 46.219106 -121.346303 247 20195ft 345kts
12-Jan-18 19:58 46.174450 -121.466750 247 19021ft 337kts
12-Jan-18 19:59 46.130667 -121.584324 247 17855ft 331kts
12-Jan-18 20:00 46.088516 -121.697455 246 16752ft 327kts
12-Jan-18 20:01 46.045736 -121.810972 246 15686ft 324kts
12-Jan-18 20:02 46.003505 -121.923132 246 14651ft 320kts
12-Jan-18 20:03 45.962092 -122.032661 247 13672ft 317kts
12-Jan-18 20:04 45.921075 -122.140804 247 12647ft 297kts
12-Jan-18 20:05 45.887292 -122.228295 247 11596ft 277kts
12-Jan-18 20:06 45.849085 -122.322669 247 9923ft 277kts
12-Jan-18 20:07 45.810785 -122.419708 247 8174ft 286kts
12-Jan-18 20:08 45.773486 -122.519144 247 7370ft 283kts
12-Jan-18 20:09 45.739429 -122.618134 262 5982ft 274kts
12-Jan-18 20:10 45.749844 -122.719473 284 4631ft 259kts
12-Jan-18 20:11 45.765144 -122.816765 285 3976ft 238kts
12-Jan-18 20:12 45.779736 -122.906245 285 3980ft 230kts
12-Jan-18 20:13 45.756807 -122.977011 202 3995ft 224kts
12-Jan-18 20:14 45.716339 -122.953922 105 4070ft 168kts
12-Jan-18 20:15 45.698937 -122.894461 112 3985ft 158kts
12-Jan-18 20:16 45.678746 -122.838057 115 3434ft 156kts
12-Jan-18 20:17 45.658228 -122.784085 117 2613ft 153kts
12-Jan-18 20:18 45.637830 -122.731305 118 1789ft 152kts
12-Jan-18 20:19 45.618207 -122.680356 118 938ft 140kts
12-Jan-18 20:20 45.600163 -122.634153 118 273ft 128kts
12-Jan-18 20:21 45.588186 -122.603357 116 38ft 34kts
12-Jan-18 20:22 45.588553 -122.597651 36 38ft 6kts
12-Jan-18 20:25 45.588825 -122.597419 27 38ft 0kts
12-Jan-18 20:26 45.588825 -122.597419 27 38ft 0kts
12-Jan-18 20:27 45.588825 -122.597419 27 38ft 0kts
12-Jan-18 20:28 45.588825 -122.597419 27 38ft 0kts
12-Jan-18 20:29 45.588825 -122.597419 27 38ft 0kts
12-Jan-18 20:30 45.588825 -122.597419 27 38ft 0kts
12-Jan-18 20:31 45.588825 -122.597419 27 38ft 0kts

Navigation Log

Ident Type
Flight plan parsing failed, navigation log unavailable